createdAt,value
2019-05-22T00:02:55.802Z,948.8
2019-05-22T00:06:02.087Z,948.7
2019-05-22T00:09:08.460Z,948.7
2019-05-22T00:12:14.646Z,948.7
2019-05-22T00:15:20.839Z,948.7
2019-05-22T00:18:26.967Z,948.7
2019-05-22T00:21:33.388Z,948.7
2019-05-22T00:24:39.807Z,948.8
2019-05-22T00:27:46.075Z,948.8
2019-05-22T00:30:52.329Z,948.8
2019-05-22T00:33:58.553Z,948.9
2019-05-22T00:37:04.823Z,948.9
2019-05-22T00:40:11.101Z,948.9
2019-05-22T00:43:17.386Z,948.8
2019-05-22T00:46:23.607Z,948.8
2019-05-22T00:49:29.778Z,948.8
2019-05-22T00:52:36.241Z,948.9
2019-05-22T00:55:42.511Z,948.9
2019-05-22T00:58:48.645Z,948.9
2019-05-22T01:01:54.941Z,948.9
2019-05-22T01:05:01.108Z,949
2019-05-22T01:08:07.605Z,948.9
2019-05-22T01:11:13.715Z,949
2019-05-22T01:14:20.009Z,948.9
2019-05-22T01:17:26.172Z,949.1
2019-05-22T01:20:32.443Z,949
2019-05-22T01:23:38.706Z,949.1
2019-05-22T01:26:45.001Z,949
2019-05-22T01:29:51.138Z,949
2019-05-22T01:32:57.402Z,948.9
2019-05-22T01:36:03.536Z,948.9
2019-05-22T01:39:09.732Z,948.9
2019-05-22T01:42:16.256Z,948.9
2019-05-22T01:45:22.392Z,949
2019-05-22T01:48:28.630Z,949.1
2019-05-22T01:51:34.795Z,949.1
2019-05-22T01:54:40.961Z,949.1
2019-05-22T01:57:47.225Z,949.1
2019-05-22T02:00:53.438Z,949.1
2019-05-22T02:03:59.630Z,949
2019-05-22T02:07:06.067Z,948.9
2019-05-22T02:10:12.292Z,948.9
2019-05-22T02:13:18.525Z,948.9
2019-05-22T02:16:24.686Z,949
2019-05-22T02:19:30.993Z,949
2019-05-22T02:22:37.162Z,949
2019-05-22T02:25:43.283Z,949
2019-05-22T02:28:49.592Z,949
2019-05-22T02:31:56.879Z,949
2019-05-22T02:35:03.194Z,949
2019-05-22T02:38:09.459Z,949
2019-05-22T02:41:15.782Z,949
2019-05-22T02:44:21.950Z,948.9
2019-05-22T02:47:28.206Z,948.9
2019-05-22T02:50:34.380Z,949
2019-05-22T02:53:40.636Z,949
2019-05-22T02:56:46.913Z,949
2019-05-22T02:59:53.095Z,949.1
2019-05-22T03:02:59.312Z,949.1
2019-05-22T03:06:05.676Z,949
2019-05-22T03:09:11.874Z,948.9
2019-05-22T03:12:18.000Z,949
2019-05-22T03:15:24.347Z,949.1
2019-05-22T03:18:30.614Z,949.1
2019-05-22T03:21:36.743Z,949.2
2019-05-22T03:24:42.892Z,949.2
2019-05-22T03:27:49.117Z,949.3
2019-05-22T03:30:55.458Z,949.3
2019-05-22T03:34:01.843Z,949.3
2019-05-22T03:37:08.032Z,949.3
2019-05-22T03:40:14.224Z,949.2
2019-05-22T03:43:20.390Z,949.2
2019-05-22T03:46:26.655Z,949.2
2019-05-22T03:49:32.789Z,949.2
2019-05-22T03:52:39.085Z,949.2
2019-05-22T03:55:45.221Z,949.2
2019-05-22T03:58:51.472Z,949.3
2019-05-22T04:01:57.681Z,949.4
2019-05-22T04:05:04.020Z,949.5
2019-05-22T04:08:10.315Z,949.4
2019-05-22T04:11:16.587Z,949.5
2019-05-22T04:14:22.708Z,949.4
2019-05-22T04:17:28.963Z,949.4
2019-05-22T04:20:35.111Z,949.4
2019-05-22T04:23:41.342Z,949.3
2019-05-22T04:26:47.614Z,949.4
2019-05-22T04:29:53.877Z,949.3
2019-05-22T04:33:00.004Z,949.4
2019-05-22T04:36:10.767Z,949.3
2019-05-22T04:39:16.977Z,949.3
2019-05-22T04:42:23.245Z,949.2
2019-05-22T04:45:29.517Z,949.3
2019-05-22T04:48:35.944Z,949.4
2019-05-22T04:51:42.258Z,949.4
2019-05-22T04:54:52.219Z,949.3
2019-05-22T04:57:58.778Z,949.4
2019-05-22T05:01:04.942Z,949.3
2019-05-22T05:04:11.148Z,949.3
2019-05-22T05:07:17.273Z,949.3
2019-05-22T05:10:23.464Z,949.3
2019-05-22T05:13:29.803Z,949.2
2019-05-22T05:16:35.998Z,949.2
2019-05-22T05:19:42.232Z,949.2
2019-05-22T05:22:48.499Z,949.2
2019-05-22T05:25:54.767Z,949.3
2019-05-22T05:29:00.892Z,949.3
2019-05-22T05:32:07.093Z,949.3
2019-05-22T05:35:13.243Z,949.4
2019-05-22T05:38:19.483Z,949.4
2019-05-22T05:41:25.694Z,949.3
2019-05-22T05:44:31.854Z,949.4
2019-05-22T05:47:37.995Z,949.4
2019-05-22T05:50:44.285Z,949.5
2019-05-22T05:53:50.412Z,949.6
2019-05-22T05:56:56.713Z,949.6
2019-05-22T06:00:02.840Z,949.7
2019-05-22T06:03:09.043Z,949.7
2019-05-22T06:06:15.313Z,949.6
2019-05-22T06:09:21.544Z,949.6
2019-05-22T06:12:27.795Z,949.6
2019-05-22T06:15:48.707Z,949.7
2019-05-22T06:18:58.305Z,949.6
2019-05-22T06:22:04.567Z,949.7
2019-05-22T06:25:10.961Z,949.7
2019-05-22T06:28:17.201Z,949.6
2019-05-22T06:31:23.365Z,949.6
2019-05-22T06:34:29.536Z,949.6
2019-05-22T06:37:35.898Z,949.6
2019-05-22T06:40:42.231Z,949.6
2019-05-22T06:43:48.570Z,949.7
2019-05-22T06:46:57.819Z,949.8
2019-05-22T06:50:03.985Z,949.7
2019-05-22T06:53:11.418Z,949.7
2019-05-22T06:56:17.602Z,949.6
2019-05-22T06:59:28.171Z,949.5
2019-05-22T07:02:34.478Z,949.5
2019-05-22T07:05:40.783Z,949.5
2019-05-22T07:08:47.166Z,949.4
2019-05-22T07:11:53.433Z,949.3
2019-05-22T07:14:59.647Z,949.2
2019-05-22T07:18:05.914Z,949.2
2019-05-22T07:21:12.295Z,949.1
2019-05-22T07:24:18.458Z,949.2
2019-05-22T07:27:24.657Z,949.2
2019-05-22T07:30:30.928Z,949.1
2019-05-22T07:33:37.246Z,949
2019-05-22T07:36:43.376Z,949
2019-05-22T07:39:49.630Z,949
2019-05-22T07:42:56.424Z,949
2019-05-22T07:46:03.082Z,949
2019-05-22T07:49:09.353Z,949
2019-05-22T07:52:15.559Z,949
2019-05-22T07:55:21.837Z,949
2019-05-22T07:58:28.050Z,949
2019-05-22T08:01:34.220Z,949
2019-05-22T08:04:40.564Z,949
2019-05-22T08:07:47.283Z,949
2019-05-22T08:10:53.801Z,949
2019-05-22T08:14:00.306Z,948.9
2019-05-22T08:17:06.493Z,948.9
2019-05-22T08:20:12.755Z,949
2019-05-22T08:23:19.006Z,948.8
2019-05-22T08:26:25.175Z,948.9
2019-05-22T08:29:31.604Z,948.9
2019-05-22T08:32:37.757Z,948.9
2019-05-22T08:35:44.251Z,949
2019-05-22T08:38:50.510Z,949
2019-05-22T08:41:56.817Z,949
2019-05-22T08:45:03.187Z,948.9
2019-05-22T08:48:09.430Z,949
2019-05-22T08:51:15.726Z,948.9
2019-05-22T08:54:21.883Z,949
2019-05-22T08:57:28.016Z,949
2019-05-22T09:00:34.315Z,949
2019-05-22T09:03:40.442Z,949
2019-05-22T09:06:46.884Z,948.9
2019-05-22T09:09:53.050Z,948.9
2019-05-22T09:12:59.266Z,948.9
2019-05-22T09:16:05.543Z,948.9
2019-05-22T09:19:12.090Z,948.8
2019-05-22T09:22:19.005Z,948.7
2019-05-22T09:25:25.173Z,948.7
2019-05-22T09:28:31.436Z,948.7
2019-05-22T09:31:37.709Z,948.6
2019-05-22T09:34:44.180Z,948.5
2019-05-22T09:37:50.314Z,948.6
2019-05-22T09:40:56.626Z,948.6
2019-05-22T09:44:02.918Z,948.7
2019-05-22T09:47:09.238Z,948.8
2019-05-22T09:50:15.367Z,948.7
2019-05-22T09:53:21.670Z,948.8
2019-05-22T09:56:27.836Z,948.8
2019-05-22T09:59:34.123Z,948.7
2019-05-22T10:02:40.273Z,948.6
2019-05-22T10:05:47.326Z,948.6
2019-05-22T10:08:54.143Z,948.7
2019-05-22T10:12:00.279Z,948.7
2019-05-22T10:15:06.961Z,948.6
2019-05-22T10:18:13.751Z,948.5
2019-05-22T10:21:20.036Z,948.5
2019-05-22T10:24:26.438Z,948.4
2019-05-22T10:27:32.725Z,948.5
2019-05-22T10:30:38.864Z,948.5
2019-05-22T10:33:45.339Z,948.5
2019-05-22T10:36:53.910Z,948.5
2019-05-22T10:40:00.175Z,948.5
2019-05-22T10:43:06.559Z,948.5
2019-05-22T10:46:13.496Z,948.4
2019-05-22T10:49:19.794Z,948.4
2019-05-22T10:52:26.060Z,948.3
2019-05-22T10:55:32.342Z,948.4
2019-05-22T10:58:38.510Z,948.4
2019-05-22T11:01:44.697Z,948.4
2019-05-22T11:04:50.820Z,948.4
2019-05-22T11:07:57.404Z,948.3
2019-05-22T11:11:03.919Z,948.4
2019-05-22T11:14:10.859Z,948.4
2019-05-22T11:17:17.134Z,948.3
2019-05-22T11:20:23.337Z,948.3
2019-05-22T11:23:29.664Z,948.2
2019-05-22T11:26:35.973Z,948.1
2019-05-22T11:29:42.246Z,948.2
2019-05-22T11:32:48.405Z,948.1
2019-05-22T11:35:54.631Z,948.1
2019-05-22T11:39:00.899Z,948
2019-05-22T11:42:07.229Z,948
2019-05-22T11:45:13.535Z,948
2019-05-22T11:48:19.797Z,948.1
2019-05-22T11:51:26.062Z,948.1
2019-05-22T11:54:32.194Z,948.1
2019-05-22T11:57:38.487Z,948.1
2019-05-22T12:00:44.662Z,948
2019-05-22T12:03:51.132Z,948
2019-05-22T12:06:57.509Z,947.9
2019-05-22T12:10:03.758Z,947.9
2019-05-22T12:13:10.024Z,947.9
2019-05-22T12:16:16.764Z,947.9
2019-05-22T12:19:23.082Z,947.8
2019-05-22T12:22:29.336Z,947.8
2019-05-22T12:25:35.463Z,947.9
2019-05-22T12:28:41.653Z,947.8
2019-05-22T12:31:47.792Z,947.9
2019-05-22T12:34:54.110Z,947.8
2019-05-22T12:38:01.419Z,947.7
2019-05-22T12:41:07.662Z,947.6
2019-05-22T12:44:13.791Z,947.6
2019-05-22T12:47:19.987Z,947.6
2019-05-22T12:50:26.110Z,947.5
2019-05-22T12:53:32.443Z,947.4
2019-05-22T12:56:38.901Z,947.5
2019-05-22T12:59:45.260Z,947.4
2019-05-22T13:02:51.536Z,947.4
2019-05-22T13:05:58.058Z,947.4
2019-05-22T13:09:04.510Z,947.4
2019-05-22T13:12:10.742Z,947.5
2019-05-22T13:15:17.054Z,947.5
2019-05-22T13:18:23.734Z,947.4
2019-05-22T13:21:29.975Z,947.5
2019-05-22T13:24:36.328Z,947.5
2019-05-22T13:27:42.537Z,947.5
2019-05-22T13:30:48.796Z,947.5
2019-05-22T13:33:55.064Z,947.5
2019-05-22T13:37:01.182Z,947.5
2019-05-22T13:40:07.551Z,947.5
2019-05-22T13:43:33.343Z,947.3
2019-05-22T13:46:39.745Z,947.3
2019-05-22T13:49:46.059Z,947.3
2019-05-22T13:52:52.277Z,947.2
2019-05-22T13:55:58.539Z,947.2
2019-05-22T13:59:04.698Z,947.2
2019-05-22T14:02:10.978Z,947
2019-05-22T14:05:17.146Z,947.1
2019-05-22T14:08:23.651Z,947
2019-05-22T14:11:29.990Z,947.1
2019-05-22T14:14:36.105Z,946.9
2019-05-22T14:17:42.418Z,946.8
2019-05-22T14:20:48.933Z,946.8
2019-05-22T14:23:55.158Z,946.8
2019-05-22T14:27:02.335Z,946.7
2019-05-22T14:30:08.699Z,946.7
2019-05-22T14:33:14.974Z,946.7
2019-05-22T14:36:21.168Z,946.7
2019-05-22T14:39:27.398Z,946.8
2019-05-22T14:42:33.568Z,946.8
2019-05-22T14:45:39.701Z,946.7
2019-05-22T14:48:45.952Z,946.6
2019-05-22T14:51:52.295Z,946.7
2019-05-22T14:54:58.422Z,946.7
2019-05-22T14:58:04.776Z,946.5
2019-05-22T15:01:11.416Z,946.6
2019-05-22T15:04:17.763Z,946.6
2019-05-22T15:07:23.954Z,946.5
2019-05-22T15:10:30.184Z,946.5
2019-05-22T15:13:36.458Z,946.5
2019-05-22T15:16:42.755Z,946.4
2019-05-22T15:19:49.032Z,946.4
2019-05-22T15:22:57.554Z,946.4
2019-05-22T15:26:03.878Z,946.4
2019-05-22T15:29:10.102Z,946.3
2019-05-22T15:32:16.292Z,946.3
2019-05-22T15:35:22.420Z,946.3
2019-05-22T15:38:28.812Z,946.2
2019-05-22T15:41:35.052Z,946.2
2019-05-22T15:44:41.315Z,946.3
2019-05-22T15:47:58.325Z,946.4
2019-05-22T15:51:04.653Z,946.4
2019-05-22T15:54:10.943Z,946.4
2019-05-22T15:57:17.131Z,946.4
2019-05-22T16:00:23.457Z,946.3
2019-05-22T16:03:29.712Z,946.3
2019-05-22T16:06:36.361Z,946.3
2019-05-22T16:09:42.498Z,946.4
2019-05-22T16:12:48.717Z,946.3
2019-05-22T16:15:54.846Z,946.3
2019-05-22T16:19:01.177Z,946.3
2019-05-22T16:22:07.339Z,946.4
2019-05-22T16:25:13.529Z,946.4
2019-05-22T16:28:19.751Z,946.5
2019-05-22T16:31:25.872Z,946.4
2019-05-22T16:34:32.171Z,946.5
2019-05-22T16:37:38.301Z,946.5
2019-05-22T16:40:44.472Z,946.5
2019-05-22T16:43:52.357Z,946.6
2019-05-22T16:46:58.498Z,946.7
2019-05-22T16:50:04.836Z,946.7
2019-05-22T16:53:11.131Z,946.8
2019-05-22T16:56:17.290Z,946.8
2019-05-22T16:59:23.563Z,946.8
2019-05-22T17:02:29.695Z,946.9
2019-05-22T17:05:36.202Z,946.9
2019-05-22T17:08:42.436Z,947
2019-05-22T17:11:48.562Z,947
2019-05-22T17:14:55.004Z,947.2
2019-05-22T17:18:01.245Z,947.1
2019-05-22T17:21:07.391Z,947.2
2019-05-22T17:24:13.767Z,947
2019-05-22T17:27:19.908Z,947.1
2019-05-22T17:30:26.096Z,947.1
2019-05-22T17:33:32.268Z,947.1
2019-05-22T17:36:38.531Z,947.1
2019-05-22T17:39:45.104Z,947.2
2019-05-22T17:42:51.426Z,947.2
2019-05-22T17:45:57.685Z,947.2
2019-05-22T17:49:03.956Z,947.3
2019-05-22T17:52:13.913Z,947.3
2019-05-22T17:55:20.125Z,947.3
2019-05-22T17:58:31.101Z,947.3
2019-05-22T18:01:37.161Z,947.2
2019-05-22T18:04:43.450Z,947.2
2019-05-22T18:07:49.694Z,947.2
2019-05-22T18:10:56.014Z,947.3
2019-05-22T18:14:03.007Z,947.4
2019-05-22T18:17:09.208Z,947.5
2019-05-22T18:20:15.400Z,947.5
2019-05-22T18:23:21.542Z,947.6
2019-05-22T18:26:27.681Z,947.7
2019-05-22T18:29:34.235Z,947.8
2019-05-22T18:32:40.547Z,948
2019-05-22T18:35:46.705Z,948.2
2019-05-22T18:38:52.843Z,948.2
2019-05-22T18:41:59.035Z,948.2
2019-05-22T18:45:05.314Z,948.2
2019-05-22T18:48:11.640Z,948.1
2019-05-22T18:51:18.095Z,948.1
2019-05-22T18:54:24.305Z,948
2019-05-22T18:57:30.572Z,947.9
2019-05-22T19:00:36.854Z,947.9
2019-05-22T19:03:42.985Z,947.9
2019-05-22T19:06:49.523Z,948.1
2019-05-22T19:09:55.844Z,948.1
2019-05-22T19:13:02.113Z,948.1
2019-05-22T19:16:08.377Z,948.2
2019-05-22T19:19:14.723Z,948.2
2019-05-22T19:22:20.849Z,948.2
2019-05-22T19:25:27.139Z,948.3
2019-05-22T19:28:45.380Z,948.3
2019-05-22T19:31:51.504Z,948.4
2019-05-22T19:34:57.758Z,948.5
2019-05-22T19:38:04.022Z,948.5
2019-05-22T19:41:10.193Z,948.5
2019-05-22T19:44:16.320Z,948.6
2019-05-22T19:47:22.669Z,948.7
2019-05-22T19:50:28.883Z,948.6
2019-05-22T19:53:35.052Z,948.4
2019-05-22T19:56:41.237Z,948.4
2019-05-22T19:59:47.480Z,948.3
2019-05-22T20:02:53.748Z,948.3
2019-05-22T20:06:00.151Z,948.2
2019-05-22T20:09:06.388Z,948.1
2019-05-22T20:12:12.554Z,948.2
2019-05-22T20:15:18.770Z,948.2
2019-05-22T20:18:24.978Z,948.2
2019-05-22T20:21:31.374Z,948.2
2019-05-22T20:24:37.495Z,948.2
2019-05-22T20:27:43.675Z,948.2
2019-05-22T20:30:49.895Z,948.2
2019-05-22T20:33:56.101Z,948.1
2019-05-22T20:37:02.418Z,948.2
2019-05-22T20:40:08.992Z,948.2
2019-05-22T20:43:16.016Z,948.2
2019-05-22T20:46:23.322Z,948.2
2019-05-22T20:49:29.482Z,948.2
2019-05-22T20:52:35.749Z,948.1
2019-05-22T20:55:42.046Z,948.1
2019-05-22T20:58:48.223Z,948.1
2019-05-22T21:01:54.446Z,948.2
2019-05-22T21:05:00.666Z,948.2
2019-05-22T21:08:06.905Z,948.2
2019-05-22T21:11:13.012Z,948.3
2019-05-22T21:14:19.306Z,948.3
2019-05-22T21:17:25.536Z,948.3
2019-05-22T21:20:31.890Z,948.3
2019-05-22T21:23:38.107Z,948.3
2019-05-22T21:26:44.260Z,948.4
2019-05-22T21:29:50.539Z,948.5
2019-05-22T21:32:56.754Z,948.4
2019-05-22T21:36:02.972Z,948.4
2019-05-22T21:39:09.346Z,948.4
2019-05-22T21:42:15.613Z,948.3
2019-05-22T21:45:21.871Z,948.4
2019-05-22T21:48:28.147Z,948.3
2019-05-22T21:51:34.406Z,948.4
2019-05-22T21:54:40.569Z,948.5
2019-05-22T21:57:46.725Z,948.6
2019-05-22T22:00:53.001Z,948.6
2019-05-22T22:03:59.265Z,948.7
2019-05-22T22:07:05.393Z,948.8
2019-05-22T22:10:11.644Z,948.7
2019-05-22T22:13:17.863Z,948.8
2019-05-22T22:16:23.990Z,948.8
2019-05-22T22:19:30.190Z,948.8
2019-05-22T22:22:36.467Z,948.7
2019-05-22T22:25:42.588Z,948.8
2019-05-22T22:28:48.800Z,948.7
2019-05-22T22:31:55.049Z,948.7
2019-05-22T22:35:01.175Z,948.7
2019-05-22T22:38:07.481Z,948.7
2019-05-22T22:41:13.699Z,948.7
2019-05-22T22:44:20.014Z,948.6
2019-05-22T22:47:26.182Z,948.6
2019-05-22T22:50:32.398Z,948.7
2019-05-22T22:53:38.713Z,948.8
2019-05-22T22:56:45.083Z,948.8
2019-05-22T22:59:51.257Z,948.7
2019-05-22T23:02:57.479Z,948.8
2019-05-22T23:06:03.944Z,948.7
2019-05-22T23:09:13.069Z,948.8
2019-05-22T23:12:19.320Z,948.7
2019-05-22T23:15:25.549Z,948.8
2019-05-22T23:18:31.684Z,948.7
2019-05-22T23:21:37.932Z,948.6
2019-05-22T23:24:44.326Z,948.6
2019-05-22T23:27:50.515Z,948.5
2019-05-22T23:30:56.701Z,948.6
2019-05-22T23:34:02.939Z,948.5
2019-05-22T23:37:09.210Z,948.4
2019-05-22T23:40:15.472Z,948.5
2019-05-22T23:43:21.605Z,948.5
2019-05-22T23:46:28.106Z,948.4
2019-05-22T23:49:34.482Z,948.5
2019-05-22T23:52:40.750Z,948.4
2019-05-22T23:55:46.960Z,948.5
2019-05-22T23:58:54.611Z,948.4
